createdAt,value
2018-10-17T00:02:14.981Z,75.29
2018-10-17T00:04:43.393Z,75.58
2018-10-17T00:07:11.852Z,76.53
2018-10-17T00:09:40.181Z,75.86
2018-10-17T00:12:08.572Z,76.65
2018-10-17T00:14:36.949Z,76.26
2018-10-17T00:17:06.040Z,76.30
2018-10-17T00:19:34.409Z,76.77
2018-10-17T00:22:02.797Z,76.62
2018-10-17T00:24:31.165Z,77.27
2018-10-17T00:26:59.586Z,77.10
2018-10-17T00:29:28.193Z,76.98
2018-10-17T00:31:56.585Z,76.88
2018-10-17T00:34:24.989Z,77.12
2018-10-17T00:36:53.383Z,77.05
2018-10-17T00:39:21.775Z,77.15
2018-10-17T00:41:50.145Z,77.12
2018-10-17T00:44:18.541Z,77.43
2018-10-17T00:46:46.907Z,77.50
2018-10-17T00:49:15.385Z,76.91
2018-10-17T00:51:43.681Z,77.31
2018-10-17T00:54:12.069Z,77.49
2018-10-17T00:56:40.438Z,76.65
2018-10-17T00:59:12.130Z,77.34
2018-10-17T01:01:40.657Z,76.95
2018-10-17T01:04:09.364Z,77.23
2018-10-17T01:06:38.234Z,76.86
2018-10-17T01:09:10.090Z,76.60
2018-10-17T01:11:38.977Z,77.10
2018-10-17T01:14:07.796Z,76.82
2018-10-17T01:16:36.167Z,77.50
2018-10-17T01:19:05.199Z,77.41
2018-10-17T01:21:34.237Z,76.95
2018-10-17T01:24:02.781Z,77.33
2018-10-17T01:26:31.157Z,76.76
2018-10-17T01:28:59.557Z,76.73
2018-10-17T01:31:28.266Z,77.54
2018-10-17T01:33:56.681Z,76.87
2018-10-17T01:36:25.045Z,77.21
2018-10-17T01:38:53.441Z,77.96
2018-10-17T01:41:21.813Z,78.12
2018-10-17T01:43:50.205Z,77.94
2018-10-17T01:46:18.568Z,78.34
2018-10-17T01:48:46.965Z,78.02
2018-10-17T01:51:15.327Z,78.23
2018-10-17T01:53:51.357Z,78.50
2018-10-17T01:56:19.725Z,77.94
2018-10-17T01:58:48.117Z,78.14
2018-10-17T02:01:16.501Z,78.53
2018-10-17T02:03:44.897Z,78.26
2018-10-17T02:06:13.313Z,78.28
2018-10-17T02:08:41.713Z,78.09
2018-10-17T02:11:10.101Z,78.03
2018-10-17T02:13:38.509Z,78.40
2018-10-17T02:16:06.889Z,78.15
2018-10-17T02:18:35.277Z,78.29
2018-10-17T02:21:03.656Z,78.65
2018-10-17T02:23:32.053Z,77.94
2018-10-17T02:26:00.421Z,78.50
2018-10-17T02:28:28.821Z,78.50
2018-10-17T02:30:57.223Z,78.42
2018-10-17T02:33:25.628Z,78.30
2018-10-17T02:35:54.002Z,78.70
2018-10-17T02:38:22.409Z,77.88
2018-10-17T02:40:50.900Z,78.05
2018-10-17T02:43:19.355Z,79.02
2018-10-17T02:45:47.686Z,79.20
2018-10-17T02:48:16.058Z,78.86
2018-10-17T02:50:44.453Z,79.32
2018-10-17T02:53:12.927Z,79.12
2018-10-17T02:55:41.324Z,79.14
2018-10-17T02:58:09.716Z,79.15
2018-10-17T03:00:38.127Z,79.04
2018-10-17T03:03:06.527Z,79.17
2018-10-17T03:05:34.922Z,79.55
2018-10-17T03:08:03.335Z,79.09
2018-10-17T03:10:31.758Z,79.29
2018-10-17T03:13:00.367Z,79.43
2018-10-17T03:15:28.767Z,78.89
2018-10-17T03:17:57.147Z,79.81
2018-10-17T03:20:25.555Z,79.73
2018-10-17T03:22:53.960Z,79.32
2018-10-17T03:25:22.360Z,79.02
2018-10-17T03:27:50.807Z,79.69
2018-10-17T03:30:19.208Z,78.99
2018-10-17T03:32:47.625Z,79.25
2018-10-17T03:35:16.121Z,79.47
2018-10-17T03:37:44.453Z,79.17
2018-10-17T03:40:12.861Z,79.71
2018-10-17T03:42:41.244Z,79.56
2018-10-17T03:45:09.655Z,79.03
2018-10-17T03:47:38.048Z,79.46
2018-10-17T03:50:06.475Z,79.29
2018-10-17T03:52:34.850Z,79.29
2018-10-17T03:55:03.304Z,79.75
2018-10-17T03:57:31.653Z,79.60
2018-10-17T04:00:00.048Z,79.75
2018-10-17T04:02:28.418Z,79.93
2018-10-17T04:04:56.832Z,79.84
2018-10-17T04:07:25.224Z,80.07
2018-10-17T04:09:53.618Z,80.39
2018-10-17T04:12:22.003Z,80.43
2018-10-17T04:14:50.421Z,80.81
2018-10-17T04:17:18.869Z,80.21
2018-10-17T04:19:47.224Z,80.97
2018-10-17T04:22:15.601Z,80.70
2018-10-17T04:24:44.011Z,80.72
2018-10-17T04:27:12.388Z,80.25
2018-10-17T04:29:40.819Z,81.12
2018-10-17T04:32:09.394Z,80.77
2018-10-17T04:34:37.801Z,81.07
2018-10-17T04:37:06.278Z,80.63
2018-10-17T04:39:34.648Z,80.44
2018-10-17T04:42:03.050Z,80.33
2018-10-17T04:44:31.431Z,80.46
2018-10-17T04:46:59.844Z,80.18
2018-10-17T04:49:28.222Z,80.16
2018-10-17T04:51:56.623Z,80.11
2018-10-17T04:54:24.999Z,80.21
2018-10-17T04:56:53.398Z,80.19
2018-10-17T04:59:21.780Z,80.35
2018-10-17T05:01:50.191Z,80.28
2018-10-17T05:04:18.585Z,80.38
2018-10-17T05:06:47.092Z,80.36
2018-10-17T05:09:15.678Z,80.28
2018-10-17T05:11:44.080Z,80.11
2018-10-17T05:14:12.457Z,80.21
2018-10-17T05:16:40.848Z,80.02
2018-10-17T05:19:09.263Z,80.04
2018-10-17T05:21:37.651Z,79.80
2018-10-17T05:24:06.044Z,80.09
2018-10-17T05:26:34.447Z,79.75
2018-10-17T05:29:02.909Z,80.00
2018-10-17T05:31:31.291Z,79.77
2018-10-17T05:33:59.667Z,79.67
2018-10-17T05:36:28.071Z,79.39
2018-10-17T05:38:56.472Z,79.57
2018-10-17T05:41:24.865Z,79.48
2018-10-17T05:43:53.333Z,79.45
2018-10-17T05:46:21.725Z,79.89
2018-10-17T05:48:50.211Z,80.02
2018-10-17T05:51:18.607Z,79.88
2018-10-17T05:53:46.978Z,79.80
2018-10-17T05:56:15.379Z,80.15
2018-10-17T05:58:43.757Z,80.08
2018-10-17T06:01:12.292Z,79.97
2018-10-17T06:03:40.575Z,79.93
2018-10-17T06:06:08.966Z,79.89
2018-10-17T06:08:37.361Z,80.34
2018-10-17T06:11:05.867Z,80.29
2018-10-17T06:13:34.233Z,79.91
2018-10-17T06:16:02.615Z,79.94
2018-10-17T06:18:31.035Z,80.04
2018-10-17T06:20:59.408Z,79.76
2018-10-17T06:23:27.811Z,80.02
2018-10-17T06:25:56.183Z,80.08
2018-10-17T06:28:24.618Z,79.55
2018-10-17T06:30:53.035Z,79.75
2018-10-17T06:33:21.425Z,80.05
2018-10-17T06:35:49.793Z,79.33
2018-10-17T06:38:18.194Z,80.03
2018-10-17T06:40:46.567Z,79.25
2018-10-17T06:43:15.089Z,79.26
2018-10-17T06:45:43.452Z,79.37
2018-10-17T06:48:11.846Z,78.48
2018-10-17T06:50:40.217Z,78.80
2018-10-17T06:53:08.735Z,78.11
2018-10-17T06:55:37.065Z,78.00
2018-10-17T06:58:05.607Z,78.28
2018-10-17T07:00:33.985Z,78.06
2018-10-17T07:03:02.391Z,77.44
2018-10-17T07:05:30.768Z,77.82
2018-10-17T07:07:59.187Z,77.19
2018-10-17T07:10:27.751Z,77.28
2018-10-17T07:12:56.225Z,77.01
2018-10-17T07:15:24.632Z,77.26
2018-10-17T07:17:52.995Z,76.92
2018-10-17T07:20:21.381Z,76.76
2018-10-17T07:22:49.791Z,76.41
2018-10-17T07:25:18.254Z,76.71
2018-10-17T07:27:46.619Z,76.09
2018-10-17T07:30:15.029Z,75.81
2018-10-17T07:32:43.420Z,75.92
2018-10-17T07:35:11.823Z,76.17
2018-10-17T07:37:40.202Z,76.99
2018-10-17T07:40:08.699Z,76.47
2018-10-17T07:42:37.083Z,76.92
2018-10-17T07:45:06.366Z,76.62
2018-10-17T07:47:34.780Z,77.25
2018-10-17T07:50:03.344Z,77.34
2018-10-17T07:52:31.735Z,77.09
2018-10-17T07:55:00.155Z,77.24
2018-10-17T07:57:28.547Z,76.81
2018-10-17T07:59:56.958Z,77.05
2018-10-17T08:02:25.343Z,76.77
2018-10-17T08:04:53.755Z,76.51
2018-10-17T08:07:22.139Z,76.58
2018-10-17T08:09:50.542Z,76.61
2018-10-17T08:12:19.006Z,76.20
2018-10-17T08:14:47.447Z,75.83
2018-10-17T08:17:15.835Z,75.36
2018-10-17T08:19:44.239Z,74.19
2018-10-17T08:22:12.619Z,74.30
2018-10-17T08:24:41.013Z,73.70
2018-10-17T08:27:09.407Z,73.23
2018-10-17T08:29:37.811Z,73.20
2018-10-17T08:32:07.387Z,73.12
2018-10-17T08:34:35.789Z,72.84
2018-10-17T08:37:04.516Z,73.11
2018-10-17T08:39:32.620Z,72.46
2018-10-17T08:42:01.005Z,72.97
2018-10-17T08:44:29.471Z,72.12
2018-10-17T08:46:57.855Z,71.67
2018-10-17T08:49:26.255Z,71.59
2018-10-17T08:51:54.643Z,71.62
2018-10-17T08:54:23.054Z,71.22
2018-10-17T08:56:51.434Z,70.77
2018-10-17T08:59:19.838Z,70.17
2018-10-17T09:01:48.229Z,70.23
2018-10-17T09:04:16.633Z,69.94
2018-10-17T09:06:45.010Z,69.20
2018-10-17T09:09:14.073Z,68.54
2018-10-17T09:11:42.783Z,68.21
2018-10-17T09:14:11.749Z,68.42
2018-10-17T09:16:40.577Z,68.12
2018-10-17T09:19:09.672Z,68.06
2018-10-17T09:21:38.487Z,67.61
2018-10-17T09:24:06.796Z,66.87
2018-10-17T09:26:35.227Z,67.05
2018-10-17T09:29:03.653Z,66.31
2018-10-17T09:31:32.078Z,66.09
2018-10-17T09:34:00.524Z,65.41
2018-10-17T09:36:28.903Z,65.38
2018-10-17T09:38:57.285Z,64.96
2018-10-17T09:41:25.696Z,64.39
2018-10-17T09:43:54.091Z,64.73
2018-10-17T09:46:22.513Z,63.63
2018-10-17T09:48:50.894Z,63.59
2018-10-17T09:51:19.298Z,63.42
2018-10-17T09:53:47.674Z,62.45
2018-10-17T09:56:16.070Z,62.88
2018-10-17T09:58:44.463Z,62.10
2018-10-17T10:01:16.523Z,61.79
2018-10-17T10:03:44.939Z,61.74
2018-10-17T10:06:13.524Z,60.82
2018-10-17T10:08:41.917Z,61.23
2018-10-17T10:11:10.422Z,60.12
2018-10-17T10:13:38.746Z,59.84
2018-10-17T10:16:07.186Z,59.53
2018-10-17T10:18:35.550Z,59.00
2018-10-17T10:21:03.959Z,58.26
2018-10-17T10:23:32.358Z,58.73
2018-10-17T10:26:00.869Z,58.46
2018-10-17T10:28:29.288Z,57.59
2018-10-17T10:30:57.712Z,57.07
2018-10-17T10:33:26.087Z,56.44
2018-10-17T10:35:54.497Z,57.18
2018-10-17T10:38:22.922Z,57.08
2018-10-17T10:40:51.321Z,56.50
2018-10-17T10:43:19.703Z,55.96
2018-10-17T10:45:48.121Z,55.31
2018-10-17T10:48:16.613Z,56.02
2018-10-17T10:50:44.930Z,55.62
2018-10-17T10:53:13.305Z,55.30
2018-10-17T10:55:41.701Z,54.49
2018-10-17T10:58:10.145Z,54.10
2018-10-17T11:00:39.535Z,54.37
2018-10-17T11:03:07.973Z,54.01
2018-10-17T11:05:36.351Z,53.89
2018-10-17T11:08:04.844Z,52.73
2018-10-17T11:10:33.166Z,53.42
2018-10-17T11:13:01.544Z,53.08
2018-10-17T11:15:29.931Z,52.58
2018-10-17T11:17:58.335Z,52.83
2018-10-17T11:20:26.723Z,51.78
2018-10-17T11:22:55.201Z,51.62
2018-10-17T11:25:23.552Z,51.24
2018-10-17T11:27:51.950Z,51.22
2018-10-17T11:30:20.446Z,51.27
2018-10-17T11:32:48.881Z,51.86
2018-10-17T11:35:17.399Z,51.55
2018-10-17T11:37:45.776Z,51.10
2018-10-17T11:40:14.260Z,50.02
2018-10-17T11:42:42.538Z,50.73
2018-10-17T11:45:10.989Z,50.69
2018-10-17T11:47:39.382Z,50.38
2018-10-17T11:50:09.183Z,49.37
2018-10-17T11:52:37.791Z,49.52
2018-10-17T11:55:06.332Z,49.03
2018-10-17T11:57:34.851Z,48.11
2018-10-17T12:00:03.478Z,48.99
2018-10-17T12:02:31.891Z,47.81
2018-10-17T12:05:00.469Z,48.65
2018-10-17T12:07:28.715Z,48.47
2018-10-17T12:09:57.111Z,47.53
2018-10-17T12:12:25.557Z,47.40
2018-10-17T12:14:54.064Z,47.27
2018-10-17T12:17:22.455Z,48.10
2018-10-17T12:19:50.903Z,47.68
2018-10-17T12:22:19.267Z,48.02
2018-10-17T12:24:47.659Z,47.14
2018-10-17T12:27:16.145Z,47.26
2018-10-17T12:29:44.501Z,47.98
2018-10-17T12:32:12.927Z,47.19
2018-10-17T12:34:41.431Z,47.98
2018-10-17T12:37:09.822Z,47.21
2018-10-17T12:39:38.215Z,47.05
2018-10-17T12:42:06.623Z,46.78
2018-10-17T12:44:35.011Z,47.47
2018-10-17T12:47:03.434Z,46.65
2018-10-17T12:49:31.849Z,47.42
2018-10-17T12:52:00.287Z,46.61
2018-10-17T12:54:28.669Z,47.42
2018-10-17T12:56:57.039Z,46.94
2018-10-17T12:59:25.444Z,46.63
2018-10-17T13:01:53.831Z,46.66
2018-10-17T13:04:22.232Z,47.39
2018-10-17T13:06:50.609Z,47.32
2018-10-17T13:09:19.001Z,46.47
2018-10-17T13:11:47.433Z,46.64
2018-10-17T13:14:15.849Z,46.16
2018-10-17T13:16:44.235Z,46.39
2018-10-17T13:19:12.705Z,46.28
2018-10-17T13:21:41.044Z,45.56
2018-10-17T13:24:09.451Z,45.39
2018-10-17T13:26:37.821Z,46.20
2018-10-17T13:29:06.661Z,45.82
2018-10-17T13:31:35.019Z,45.60
2018-10-17T13:34:03.482Z,45.26
2018-10-17T13:36:31.866Z,45.55
2018-10-17T13:39:00.357Z,46.62
2018-10-17T13:41:28.733Z,46.67
2018-10-17T13:43:57.129Z,46.06
2018-10-17T13:46:25.514Z,45.81
2018-10-17T13:48:53.959Z,46.30
2018-10-17T13:51:22.343Z,45.80
2018-10-17T13:53:50.747Z,45.04
2018-10-17T13:56:19.235Z,46.08
2018-10-17T13:58:47.641Z,45.88
2018-10-17T14:01:16.098Z,46.11
2018-10-17T14:03:44.459Z,45.83
2018-10-17T14:06:12.919Z,45.32
2018-10-17T14:08:41.281Z,45.76
2018-10-17T14:11:09.665Z,46.60
2018-10-17T14:13:38.086Z,46.03
2018-10-17T14:16:06.749Z,46.29
2018-10-17T14:18:35.149Z,46.66
2018-10-17T14:21:03.599Z,46.97
2018-10-17T14:23:32.055Z,46.29
2018-10-17T14:26:00.589Z,47.06
2018-10-17T14:28:28.999Z,46.74
2018-10-17T14:30:59.125Z,46.47
2018-10-17T14:33:27.518Z,46.93
2018-10-17T14:35:56.022Z,46.58
2018-10-17T14:38:24.326Z,46.29
2018-10-17T14:40:52.719Z,46.67
2018-10-17T14:43:21.125Z,47.08
2018-10-17T14:45:49.540Z,47.21
2018-10-17T14:48:18.048Z,47.49
2018-10-17T14:50:46.357Z,46.18
2018-10-17T14:53:14.833Z,46.67
2018-10-17T14:55:43.255Z,46.88
2018-10-17T14:58:11.611Z,46.59
2018-10-17T15:00:40.026Z,47.56
2018-10-17T15:03:08.430Z,47.09
2018-10-17T15:05:36.947Z,47.11
2018-10-17T15:08:05.332Z,47.29
2018-10-17T15:10:33.833Z,47.91
2018-10-17T15:13:02.518Z,48.52
2018-10-17T15:15:30.917Z,48.08
2018-10-17T15:17:59.322Z,48.68
2018-10-17T15:20:27.744Z,48.00
2018-10-17T15:22:56.122Z,48.71
2018-10-17T15:25:24.527Z,48.12
2018-10-17T15:27:52.897Z,48.93
2018-10-17T15:30:21.323Z,48.55
2018-10-17T15:32:49.723Z,49.79
2018-10-17T15:35:18.122Z,50.27
2018-10-17T15:37:46.511Z,50.53
2018-10-17T15:40:14.912Z,50.87
2018-10-17T15:42:43.307Z,51.05
2018-10-17T15:45:11.765Z,51.48
2018-10-17T15:47:40.104Z,51.00
2018-10-17T15:50:08.514Z,51.81
2018-10-17T15:52:36.935Z,52.24
2018-10-17T15:55:05.703Z,51.54
2018-10-17T15:57:34.074Z,52.26
2018-10-17T16:00:02.543Z,52.99
2018-10-17T16:02:30.947Z,52.16
2018-10-17T16:04:59.314Z,53.57
2018-10-17T16:07:27.691Z,53.12
2018-10-17T16:09:56.099Z,54.18
2018-10-17T16:12:24.483Z,53.95
2018-10-17T16:14:52.888Z,55.10
2018-10-17T16:17:21.270Z,55.37
2018-10-17T16:19:49.673Z,55.36
2018-10-17T16:22:18.081Z,55.93
2018-10-17T16:24:46.497Z,55.96
2018-10-17T16:27:14.884Z,56.45
2018-10-17T16:29:43.261Z,57.09
2018-10-17T16:32:11.737Z,57.56
2018-10-17T16:34:40.141Z,57.48
2018-10-17T16:37:08.553Z,58.77
2018-10-17T16:39:36.947Z,58.01
2018-10-17T16:42:05.865Z,59.00
2018-10-17T16:44:34.216Z,58.43
2018-10-17T16:47:02.661Z,59.11
2018-10-17T16:49:31.118Z,58.86
2018-10-17T16:51:59.496Z,59.61
2018-10-17T16:54:27.871Z,59.33
2018-10-17T16:56:56.298Z,59.76
2018-10-17T16:59:24.701Z,60.41
2018-10-17T17:01:53.115Z,60.51
2018-10-17T17:04:21.557Z,60.58
2018-10-17T17:06:50.055Z,60.76
2018-10-17T17:09:18.557Z,61.65
2018-10-17T17:11:46.902Z,61.05
2018-10-17T17:14:15.308Z,61.65
2018-10-17T17:16:43.715Z,61.85
2018-10-17T17:19:12.275Z,62.36
2018-10-17T17:21:40.702Z,61.91
2018-10-17T17:24:09.161Z,61.92
2018-10-17T17:26:37.534Z,62.78
2018-10-17T17:29:06.195Z,62.35
2018-10-17T17:31:34.620Z,62.44
2018-10-17T17:34:03.001Z,63.17
2018-10-17T17:36:31.724Z,63.39
2018-10-17T17:39:00.080Z,63.78
2018-10-17T17:41:28.478Z,63.57
2018-10-17T17:43:56.983Z,63.82
2018-10-17T17:46:25.397Z,63.33
2018-10-17T17:48:53.787Z,64.07
2018-10-17T17:51:22.201Z,64.12
2018-10-17T17:53:50.580Z,63.55
2018-10-17T17:56:18.985Z,64.53
2018-10-17T17:58:47.374Z,64.37
2018-10-17T18:01:15.782Z,64.91
2018-10-17T18:03:44.161Z,64.75
2018-10-17T18:06:12.570Z,64.51
2018-10-17T18:08:40.959Z,64.64
2018-10-17T18:11:18.008Z,64.97
2018-10-17T18:13:46.395Z,64.94
2018-10-17T18:16:14.844Z,65.13
2018-10-17T18:18:43.635Z,65.59
2018-10-17T18:21:12.083Z,65.79
2018-10-17T18:23:41.002Z,65.57
2018-10-17T18:26:09.722Z,65.85
2018-10-17T18:28:38.146Z,66.47
2018-10-17T18:31:06.586Z,66.51
2018-10-17T18:33:34.990Z,66.26
2018-10-17T18:36:03.575Z,66.79
2018-10-17T18:38:31.982Z,67.13
2018-10-17T18:41:00.575Z,66.69
2018-10-17T18:43:28.979Z,67.52
2018-10-17T18:45:57.362Z,67.59
2018-10-17T18:48:26.032Z,67.78
2018-10-17T18:50:54.471Z,67.48
2018-10-17T18:53:22.989Z,67.96
2018-10-17T18:55:52.031Z,68.00
2018-10-17T18:58:20.490Z,68.13
2018-10-17T19:00:48.873Z,68.45
2018-10-17T19:03:17.288Z,68.84
2018-10-17T19:05:45.678Z,69.46
2018-10-17T19:08:14.167Z,70.15
2018-10-17T19:10:42.495Z,70.77
2018-10-17T19:13:10.899Z,71.11
2018-10-17T19:15:39.322Z,71.39
2018-10-17T19:18:07.759Z,71.63
2018-10-17T19:20:36.202Z,71.16
2018-10-17T19:23:04.819Z,71.29
2018-10-17T19:25:33.205Z,71.58
2018-10-17T19:28:01.623Z,71.89
2018-10-17T19:30:30.052Z,71.42
2018-10-17T19:32:58.488Z,71.49
2018-10-17T19:35:26.853Z,71.55
2018-10-17T19:37:55.381Z,71.72
2018-10-17T19:40:23.749Z,71.89
2018-10-17T19:42:52.182Z,72.53
2018-10-17T19:45:20.575Z,72.03
2018-10-17T19:47:49.060Z,72.09
2018-10-17T19:50:17.561Z,71.57
2018-10-17T19:52:45.953Z,71.62
2018-10-17T19:55:14.365Z,72.51
2018-10-17T19:57:42.771Z,72.01
2018-10-17T20:00:13.163Z,72.48
2018-10-17T20:02:42.034Z,72.96
2018-10-17T20:05:10.691Z,72.48
2018-10-17T20:07:39.536Z,72.99
2018-10-17T20:10:07.942Z,72.45
2018-10-17T20:12:36.315Z,73.47
2018-10-17T20:15:05.102Z,73.52
2018-10-17T20:17:33.532Z,73.33
2018-10-17T20:20:02.026Z,73.32
2018-10-17T20:22:30.423Z,73.41
2018-10-17T20:24:58.859Z,73.09
2018-10-17T20:27:27.247Z,73.62
2018-10-17T20:29:55.656Z,73.89
2018-10-17T20:32:24.101Z,73.74
2018-10-17T20:34:52.506Z,73.96
2018-10-17T20:37:20.906Z,73.52
2018-10-17T20:39:49.324Z,73.61
2018-10-17T20:42:17.808Z,73.49
2018-10-17T20:44:46.154Z,73.54
2018-10-17T20:47:14.522Z,73.62
2018-10-17T20:49:43.027Z,74.17
2018-10-17T20:52:11.429Z,73.85
2018-10-17T20:54:39.825Z,74.15
2018-10-17T20:57:08.214Z,74.46
2018-10-17T20:59:36.619Z,73.93
2018-10-17T21:02:05.223Z,73.93
2018-10-17T21:04:33.616Z,74.05
2018-10-17T21:07:02.002Z,74.93
2018-10-17T21:09:30.406Z,75.09
2018-10-17T21:11:58.839Z,74.21
2018-10-17T21:14:27.253Z,74.98
2018-10-17T21:16:55.636Z,74.35
2018-10-17T21:19:24.037Z,74.35
2018-10-17T21:21:52.410Z,75.17
2018-10-17T21:24:20.815Z,75.23
2018-10-17T21:26:49.216Z,75.36
2018-10-17T21:29:17.663Z,75.57
2018-10-17T21:31:46.067Z,75.06
2018-10-17T21:34:14.471Z,75.62
2018-10-17T21:36:42.850Z,75.57
2018-10-17T21:39:12.623Z,74.89
2018-10-17T21:41:41.016Z,75.55
2018-10-17T21:44:10.478Z,75.98
2018-10-17T21:46:39.171Z,75.15
2018-10-17T21:49:08.490Z,75.61
2018-10-17T21:51:36.880Z,75.46
2018-10-17T21:54:05.706Z,75.96
2018-10-17T21:56:34.098Z,75.63
2018-10-17T21:59:02.608Z,75.49
2018-10-17T22:01:31.107Z,75.64
2018-10-17T22:03:59.487Z,75.71
2018-10-17T22:06:27.902Z,76.22
2018-10-17T22:08:56.291Z,76.06
2018-10-17T22:11:24.685Z,75.52
2018-10-17T22:13:53.087Z,75.80
2018-10-17T22:16:21.789Z,76.28
2018-10-17T22:18:50.255Z,76.32
2018-10-17T22:21:18.621Z,75.96
2018-10-17T22:23:46.993Z,76.47
2018-10-17T22:26:15.499Z,76.65
2018-10-17T22:28:43.840Z,76.79
2018-10-17T22:31:12.255Z,76.75
2018-10-17T22:33:40.644Z,76.77
2018-10-17T22:36:09.079Z,77.21
2018-10-17T22:38:37.453Z,76.61
2018-10-17T22:41:05.902Z,77.19
2018-10-17T22:43:34.298Z,76.88
2018-10-17T22:46:02.692Z,77.07
2018-10-17T22:48:31.078Z,76.88
2018-10-17T22:50:59.475Z,77.68
2018-10-17T22:53:27.852Z,77.13
2018-10-17T22:55:56.299Z,77.26
2018-10-17T22:58:24.983Z,77.29
2018-10-17T23:00:53.387Z,77.01
2018-10-17T23:03:21.758Z,77.84
2018-10-17T23:05:50.171Z,77.28
2018-10-17T23:08:18.961Z,77.71
2018-10-17T23:10:47.579Z,77.31
2018-10-17T23:13:15.954Z,77.44
2018-10-17T23:15:44.444Z,77.79
2018-10-17T23:18:12.819Z,77.35
2018-10-17T23:20:41.222Z,77.29
2018-10-17T23:23:09.585Z,77.63
2018-10-17T23:25:37.982Z,77.98
2018-10-17T23:28:06.354Z,78.35
2018-10-17T23:30:34.791Z,77.62
2018-10-17T23:33:03.166Z,77.81
2018-10-17T23:35:31.572Z,77.82
2018-10-17T23:38:00.008Z,78.39
2018-10-17T23:40:28.427Z,78.72
2018-10-17T23:42:56.807Z,78.47
2018-10-17T23:45:25.189Z,78.69
2018-10-17T23:47:53.636Z,78.11
2018-10-17T23:50:21.995Z,78.78
2018-10-17T23:52:50.398Z,78.16
2018-10-17T23:55:18.849Z,78.68
2018-10-17T23:57:47.256Z,78.58
